VJT13 GCLP-GCLA
Flight info
| Callsign | VJT13 |
|---|---|
| Flight time | 1h 8m |
| Altitude | 8000 |
| Route | ARACO |
| Aircraft | C208/L-SDFGR/C |
Departure
| Time | 2026-04-27 10:21 |
|---|---|
| Airport | Gran Canaria Airport (GCLP) |
Arrival
| Time | 2026-04-27 11:30 |
|---|---|
| Airport | La Palma Airport (GCLA) |
| Time | Latitude | Longitude | Altitude | Speed | Heading |
|---|---|---|---|---|---|
| 2026-04-27 10:21 | 27.98411 | -15.37910 | 2409 ft | 92 kts | 21° |
| 2026-04-27 10:21 | 27.98981 | -15.37587 | 2598 ft | 92 kts | 21° |
| 2026-04-27 10:21 | 27.99538 | -15.37252 | 2796 ft | 90 kts | 21° |
| 2026-04-27 10:21 | 28.00087 | -15.36927 | 2991 ft | 88 kts | 25° |
| 2026-04-27 10:22 | 28.00640 | -15.36630 | 3186 ft | 86 kts | 14° |
| 2026-04-27 10:22 | 28.01191 | -15.36750 | 3406 ft | 84 kts | 334° |
| 2026-04-27 10:22 | 28.01729 | -15.37202 | 3611 ft | 102 kts | 328° |
| 2026-04-27 10:22 | 28.02306 | -15.37758 | 3807 ft | 113 kts | 326° |
| 2026-04-27 10:23 | 28.02937 | -15.38362 | 4017 ft | 116 kts | 325° |
| 2026-04-27 10:23 | 28.03587 | -15.38957 | 4218 ft | 120 kts | 326° |
| 2026-04-27 10:23 | 28.04251 | -15.39570 | 4415 ft | 122 kts | 326° |
| 2026-04-27 10:23 | 28.04927 | -15.40213 | 4618 ft | 125 kts | 326° |
| 2026-04-27 10:24 | 28.05606 | -15.40860 | 4821 ft | 124 kts | 325° |
| 2026-04-27 10:24 | 28.06285 | -15.41477 | 5015 ft | 124 kts | 327° |
| 2026-04-27 10:24 | 28.06967 | -15.42112 | 5217 ft | 124 kts | 325° |
| 2026-04-27 10:24 | 28.07646 | -15.42722 | 5410 ft | 124 kts | 326° |
| 2026-04-27 10:25 | 28.08306 | -15.43336 | 5605 ft | 124 kts | 326° |
| 2026-04-27 10:25 | 28.08985 | -15.43966 | 5802 ft | 124 kts | 326° |
| 2026-04-27 10:25 | 28.09670 | -15.44594 | 6003 ft | 124 kts | 326° |
| 2026-04-27 10:25 | 28.10351 | -15.45218 | 6203 ft | 123 kts | 326° |
| 2026-04-27 10:26 | 28.11026 | -15.45846 | 6413 ft | 122 kts | 326° |
| 2026-04-27 10:26 | 28.11691 | -15.46452 | 6618 ft | 121 kts | 326° |
| 2026-04-27 10:26 | 28.12359 | -15.47048 | 6820 ft | 120 kts | 327° |
| 2026-04-27 10:26 | 28.13017 | -15.47642 | 7021 ft | 120 kts | 327° |
| 2026-04-27 10:27 | 28.13676 | -15.48239 | 7230 ft | 119 kts | 326° |
| 2026-04-27 10:27 | 28.14338 | -15.48830 | 7433 ft | 118 kts | 326° |
| 2026-04-27 10:27 | 28.14983 | -15.49459 | 7641 ft | 121 kts | 311° |
| 2026-04-27 10:27 | 28.15228 | -15.50399 | 7862 ft | 126 kts | 283° |
| 2026-04-27 10:28 | 28.15346 | -15.51433 | 7937 ft | 136 kts | 281° |
| 2026-04-27 10:28 | 28.15440 | -15.52570 | 7945 ft | 148 kts | 278° |
| 2026-04-27 10:28 | 28.15499 | -15.53775 | 7945 ft | 155 kts | 276° |
| 2026-04-27 10:28 | 28.15502 | -15.54989 | 7940 ft | 150 kts | 275° |
| 2026-04-27 10:29 | 28.15805 | -15.56066 | 7936 ft | 141 kts | 305° |
| 2026-04-27 10:29 | 28.16329 | -15.57005 | 7937 ft | 139 kts | 308° |
| 2026-04-27 10:29 | 28.16874 | -15.57945 | 7940 ft | 139 kts | 308° |
| 2026-04-27 10:29 | 28.17416 | -15.58891 | 7940 ft | 139 kts | 308° |
| 2026-04-27 10:30 | 28.17942 | -15.59817 | 7940 ft | 138 kts | 308° |
| 2026-04-27 10:30 | 28.18473 | -15.60764 | 7939 ft | 139 kts | 307° |
| 2026-04-27 10:30 | 28.19000 | -15.61711 | 7941 ft | 138 kts | 307° |
| 2026-04-27 10:30 | 28.19515 | -15.62643 | 7941 ft | 139 kts | 307° |
| 2026-04-27 10:31 | 28.20041 | -15.63600 | 7941 ft | 139 kts | 307° |
| 2026-04-27 10:31 | 28.20562 | -15.64555 | 7943 ft | 139 kts | 307° |
| 2026-04-27 10:31 | 28.21057 | -15.65516 | 7943 ft | 140 kts | 304° |
| 2026-04-27 10:31 | 28.21553 | -15.66478 | 7943 ft | 138 kts | 306° |
| 2026-04-27 10:32 | 28.22064 | -15.67426 | 7945 ft | 139 kts | 306° |
| 2026-04-27 10:32 | 28.22577 | -15.68376 | 7945 ft | 139 kts | 307° |
| 2026-04-27 10:32 | 28.23094 | -15.69332 | 7946 ft | 139 kts | 307° |
| 2026-04-27 10:32 | 28.23606 | -15.70277 | 7948 ft | 139 kts | 307° |
| 2026-04-27 10:33 | 28.24122 | -15.71230 | 7951 ft | 138 kts | 306° |
| 2026-04-27 10:33 | 28.24611 | -15.72186 | 7950 ft | 138 kts | 306° |
| 2026-04-27 10:33 | 28.25123 | -15.73135 | 7956 ft | 138 kts | 306° |
| 2026-04-27 10:33 | 28.25632 | -15.74071 | 7956 ft | 137 kts | 307° |
| 2026-04-27 10:34 | 28.26150 | -15.75028 | 7958 ft | 138 kts | 307° |
| 2026-04-27 10:34 | 28.26645 | -15.75982 | 7960 ft | 138 kts | 306° |
| 2026-04-27 10:34 | 28.27158 | -15.76934 | 7963 ft | 139 kts | 307° |
| 2026-04-27 10:34 | 28.27677 | -15.77884 | 7968 ft | 139 kts | 307° |
| 2026-04-27 10:35 | 28.28177 | -15.78844 | 7970 ft | 138 kts | 304° |
| 2026-04-27 10:35 | 28.28679 | -15.79792 | 7970 ft | 138 kts | 307° |
| 2026-04-27 10:35 | 28.29192 | -15.80731 | 7976 ft | 139 kts | 307° |
| 2026-04-27 10:35 | 28.29706 | -15.81687 | 7979 ft | 139 kts | 305° |
| 2026-04-27 10:36 | 28.30202 | -15.82643 | 7983 ft | 138 kts | 307° |
| 2026-04-27 10:36 | 28.30719 | -15.83590 | 7985 ft | 138 kts | 307° |
| 2026-04-27 10:36 | 28.31244 | -15.84561 | 7992 ft | 146 kts | 305° |
| 2026-04-27 10:36 | 28.31767 | -15.85582 | 7989 ft | 144 kts | 306° |
| 2026-04-27 10:37 | 28.32288 | -15.86542 | 7990 ft | 139 kts | 307° |
| 2026-04-27 10:37 | 28.32799 | -15.87485 | 7992 ft | 138 kts | 306° |
| 2026-04-27 10:37 | 28.33298 | -15.88448 | 7991 ft | 138 kts | 307° |
| 2026-04-27 10:37 | 28.33817 | -15.89366 | 7987 ft | 136 kts | 315° |
| 2026-04-27 10:38 | 28.34527 | -15.90055 | 7993 ft | 131 kts | 328° |
| 2026-04-27 10:38 | 28.35281 | -15.90673 | 7991 ft | 131 kts | 331° |
| 2026-04-27 10:38 | 28.36053 | -15.91267 | 7994 ft | 131 kts | 332° |
| 2026-04-27 10:38 | 28.36834 | -15.91831 | 7995 ft | 130 kts | 333° |
| 2026-04-27 10:39 | 28.37622 | -15.92365 | 7991 ft | 130 kts | 335° |
| 2026-04-27 10:39 | 28.38419 | -15.92878 | 7993 ft | 130 kts | 336° |
| 2026-04-27 10:39 | 28.39236 | -15.93398 | 7993 ft | 131 kts | 336° |
| 2026-04-27 10:39 | 28.40038 | -15.93916 | 7994 ft | 130 kts | 336° |
| 2026-04-27 10:40 | 28.40829 | -15.94471 | 7994 ft | 130 kts | 332° |
| 2026-04-27 10:40 | 28.41610 | -15.95015 | 7993 ft | 130 kts | 335° |
| 2026-04-27 10:40 | 28.42399 | -15.95530 | 7993 ft | 130 kts | 335° |
| 2026-04-27 10:40 | 28.43005 | -15.96319 | 7994 ft | 137 kts | 302° |
| 2026-04-27 10:41 | 28.43387 | -15.97314 | 7993 ft | 139 kts | 298° |
| 2026-04-27 10:41 | 28.43754 | -15.98340 | 7992 ft | 140 kts | 298° |
| 2026-04-27 10:41 | 28.44118 | -15.99361 | 7993 ft | 139 kts | 298° |
| 2026-04-27 10:41 | 28.44485 | -16.00389 | 7994 ft | 139 kts | 298° |
| 2026-04-27 10:42 | 28.44846 | -16.01403 | 7992 ft | 138 kts | 298° |
| 2026-04-27 10:42 | 28.45209 | -16.02420 | 7992 ft | 138 kts | 298° |
| 2026-04-27 10:42 | 28.45568 | -16.03424 | 7992 ft | 138 kts | 298° |
| 2026-04-27 10:42 | 28.45931 | -16.04439 | 7994 ft | 138 kts | 298° |
| 2026-04-27 10:43 | 28.46306 | -16.05481 | 7992 ft | 139 kts | 298° |
| 2026-04-27 10:43 | 28.46682 | -16.06529 | 7996 ft | 139 kts | 298° |
| 2026-04-27 10:43 | 28.47051 | -16.07559 | 7992 ft | 138 kts | 298° |
| 2026-04-27 10:43 | 28.47420 | -16.08589 | 7992 ft | 139 kts | 298° |
| 2026-04-27 10:44 | 28.47783 | -16.09602 | 7994 ft | 138 kts | 298° |
| 2026-04-27 10:44 | 28.48152 | -16.10632 | 7992 ft | 138 kts | 298° |
| 2026-04-27 10:44 | 28.48516 | -16.11648 | 7993 ft | 138 kts | 298° |
| 2026-04-27 10:44 | 28.48893 | -16.12674 | 7992 ft | 138 kts | 300° |
| 2026-04-27 10:45 | 28.49293 | -16.13687 | 7993 ft | 138 kts | 301° |
| 2026-04-27 10:45 | 28.49717 | -16.14694 | 7994 ft | 138 kts | 303° |
| 2026-04-27 10:45 | 28.50158 | -16.15673 | 7993 ft | 138 kts | 304° |
| 2026-04-27 10:45 | 28.50619 | -16.16630 | 7995 ft | 138 kts | 306° |
| 2026-04-27 10:46 | 28.51115 | -16.17595 | 7994 ft | 137 kts | 307° |
| 2026-04-27 10:46 | 28.51629 | -16.18537 | 7992 ft | 137 kts | 309° |
| 2026-04-27 10:46 | 28.52038 | -16.19549 | 7994 ft | 140 kts | 295° |
| 2026-04-27 10:46 | 28.52335 | -16.20609 | 7992 ft | 140 kts | 293° |
| 2026-04-27 10:47 | 28.52616 | -16.21675 | 7993 ft | 141 kts | 293° |
| 2026-04-27 10:47 | 28.52892 | -16.22747 | 7993 ft | 140 kts | 292° |
| 2026-04-27 10:47 | 28.53159 | -16.23807 | 7993 ft | 140 kts | 292° |
| 2026-04-27 10:47 | 28.53430 | -16.24890 | 7992 ft | 141 kts | 292° |
| 2026-04-27 10:48 | 28.53695 | -16.25959 | 7993 ft | 142 kts | 292° |
| 2026-04-27 10:48 | 28.53986 | -16.27051 | 7994 ft | 142 kts | 294° |
| 2026-04-27 10:48 | 28.54283 | -16.28145 | 7993 ft | 142 kts | 292° |
| 2026-04-27 10:48 | 28.54548 | -16.29238 | 7992 ft | 142 kts | 291° |
| 2026-04-27 10:49 | 28.54807 | -16.30349 | 7991 ft | 142 kts | 291° |
| 2026-04-27 10:49 | 28.55061 | -16.31442 | 7994 ft | 142 kts | 291° |
| 2026-04-27 10:49 | 28.55319 | -16.32553 | 7984 ft | 143 kts | 291° |
| 2026-04-27 10:49 | 28.55589 | -16.33706 | 7877 ft | 148 kts | 291° |
| 2026-04-27 10:50 | 28.55855 | -16.34846 | 7865 ft | 145 kts | 291° |
| 2026-04-27 10:50 | 28.56114 | -16.35957 | 7864 ft | 144 kts | 289° |
| 2026-04-27 10:50 | 28.55969 | -16.37112 | 7864 ft | 152 kts | 242° |
| 2026-04-27 10:50 | 28.55137 | -16.37842 | 7864 ft | 153 kts | 194° |
| 2026-04-27 10:51 | 28.54101 | -16.37727 | 7865 ft | 146 kts | 147° |
| 2026-04-27 10:51 | 28.53122 | -16.37357 | 7869 ft | 151 kts | 181° |
| 2026-04-27 10:51 | 28.52169 | -16.37846 | 7870 ft | 152 kts | 228° |
| 2026-04-27 10:51 | 28.51755 | -16.38888 | 7871 ft | 145 kts | 271° |
| 2026-04-27 10:52 | 28.51786 | -16.40024 | 7866 ft | 144 kts | 280° |
| 2026-04-27 10:52 | 28.51867 | -16.41153 | 7865 ft | 143 kts | 281° |
| 2026-04-27 10:52 | 28.51952 | -16.42290 | 7865 ft | 144 kts | 281° |
| 2026-04-27 10:52 | 28.52039 | -16.43428 | 7864 ft | 144 kts | 281° |
| 2026-04-27 10:53 | 28.52124 | -16.44551 | 7865 ft | 144 kts | 281° |
| 2026-04-27 10:53 | 28.52296 | -16.46812 | 7865 ft | 144 kts | 281° |
| 2026-04-27 10:53 | 28.52385 | -16.47953 | 7865 ft | 144 kts | 281° |
| 2026-04-27 10:54 | 28.52474 | -16.49090 | 7865 ft | 144 kts | 281° |
| 2026-04-27 10:54 | 28.52557 | -16.50221 | 7864 ft | 145 kts | 276° |
| 2026-04-27 10:54 | 28.52401 | -16.51379 | 7865 ft | 148 kts | 263° |
| 2026-04-27 10:54 | 28.52178 | -16.52527 | 7865 ft | 148 kts | 262° |
| 2026-04-27 10:55 | 28.51950 | -16.53664 | 7865 ft | 148 kts | 262° |
| 2026-04-27 10:55 | 28.51722 | -16.54806 | 7865 ft | 148 kts | 262° |
| 2026-04-27 10:55 | 28.51494 | -16.55948 | 7864 ft | 148 kts | 262° |
| 2026-04-27 10:55 | 28.51264 | -16.57104 | 7865 ft | 148 kts | 262° |
| 2026-04-27 10:56 | 28.51039 | -16.58239 | 7865 ft | 148 kts | 262° |
| 2026-04-27 10:56 | 28.50811 | -16.59392 | 7865 ft | 148 kts | 262° |
| 2026-04-27 10:56 | 28.50586 | -16.60536 | 7865 ft | 148 kts | 262° |
| 2026-04-27 10:56 | 28.50396 | -16.61685 | 7865 ft | 148 kts | 267° |
| 2026-04-27 10:57 | 28.50251 | -16.62841 | 7865 ft | 148 kts | 267° |
| 2026-04-27 10:57 | 28.50111 | -16.63988 | 7866 ft | 148 kts | 267° |
| 2026-04-27 10:57 | 28.49970 | -16.65154 | 7864 ft | 148 kts | 267° |
| 2026-04-27 10:57 | 28.49831 | -16.66305 | 7864 ft | 148 kts | 267° |
| 2026-04-27 10:58 | 28.49692 | -16.67467 | 7864 ft | 147 kts | 267° |
| 2026-04-27 10:58 | 28.49555 | -16.68628 | 7864 ft | 147 kts | 267° |
| 2026-04-27 10:58 | 28.49424 | -16.69772 | 7864 ft | 147 kts | 267° |
| 2026-04-27 10:58 | 28.49256 | -16.70930 | 7862 ft | 149 kts | 258° |
| 2026-04-27 10:59 | 28.48968 | -16.72059 | 7864 ft | 149 kts | 257° |
| 2026-04-27 10:59 | 28.48675 | -16.73173 | 7864 ft | 149 kts | 257° |
| 2026-04-27 10:59 | 28.48373 | -16.74315 | 7864 ft | 149 kts | 257° |
| 2026-04-27 11:00 | 28.47780 | -16.76565 | 7864 ft | 149 kts | 257° |
| 2026-04-27 11:00 | 28.47486 | -16.77689 | 7864 ft | 149 kts | 257° |
| 2026-04-27 11:00 | 28.47187 | -16.78831 | 7864 ft | 149 kts | 257° |
| 2026-04-27 11:00 | 28.46890 | -16.79964 | 7864 ft | 149 kts | 257° |
| 2026-04-27 11:01 | 28.46597 | -16.81080 | 7864 ft | 149 kts | 257° |
| 2026-04-27 11:01 | 28.46303 | -16.82210 | 7864 ft | 149 kts | 257° |
| 2026-04-27 11:01 | 28.46006 | -16.83354 | 7864 ft | 149 kts | 257° |
| 2026-04-27 11:01 | 28.45715 | -16.84474 | 7864 ft | 149 kts | 257° |
| 2026-04-27 11:02 | 28.45422 | -16.85609 | 7865 ft | 149 kts | 257° |
| 2026-04-27 11:02 | 28.45128 | -16.86743 | 7864 ft | 149 kts | 257° |
| 2026-04-27 11:02 | 28.44835 | -16.87871 | 7865 ft | 149 kts | 257° |
| 2026-04-27 11:02 | 28.44543 | -16.89005 | 7864 ft | 149 kts | 257° |
| 2026-04-27 11:03 | 28.44251 | -16.90139 | 7864 ft | 149 kts | 257° |
| 2026-04-27 11:03 | 28.43961 | -16.91271 | 7864 ft | 149 kts | 257° |
| 2026-04-27 11:03 | 28.43670 | -16.92410 | 7864 ft | 149 kts | 257° |
| 2026-04-27 11:03 | 28.43423 | -16.93539 | 7865 ft | 148 kts | 264° |
| 2026-04-27 11:04 | 28.43245 | -16.94696 | 7865 ft | 148 kts | 264° |
| 2026-04-27 11:04 | 28.43072 | -16.95857 | 7864 ft | 148 kts | 264° |
| 2026-04-27 11:04 | 28.42900 | -16.97020 | 7865 ft | 148 kts | 264° |
| 2026-04-27 11:04 | 28.42729 | -16.98177 | 7864 ft | 148 kts | 264° |
| 2026-04-27 11:05 | 28.42558 | -16.99330 | 7864 ft | 148 kts | 264° |
| 2026-04-27 11:05 | 28.42387 | -17.00490 | 7865 ft | 148 kts | 264° |
| 2026-04-27 11:05 | 28.42219 | -17.01634 | 7865 ft | 148 kts | 264° |
| 2026-04-27 11:05 | 28.42066 | -17.02794 | 7864 ft | 148 kts | 266° |
| 2026-04-27 11:06 | 28.41931 | -17.03957 | 7865 ft | 148 kts | 266° |
| 2026-04-27 11:06 | 28.41796 | -17.05117 | 7866 ft | 148 kts | 266° |
| 2026-04-27 11:06 | 28.41662 | -17.06276 | 7865 ft | 148 kts | 266° |
| 2026-04-27 11:06 | 28.41528 | -17.07436 | 7865 ft | 148 kts | 266° |
| 2026-04-27 11:07 | 28.41396 | -17.08601 | 7865 ft | 148 kts | 267° |
| 2026-04-27 11:07 | 28.41263 | -17.09762 | 7865 ft | 148 kts | 267° |
| 2026-04-27 11:07 | 28.41132 | -17.10918 | 7865 ft | 148 kts | 267° |
| 2026-04-27 11:07 | 28.41001 | -17.12087 | 7864 ft | 148 kts | 267° |
| 2026-04-27 11:08 | 28.40871 | -17.13245 | 7865 ft | 148 kts | 267° |
| 2026-04-27 11:08 | 28.40740 | -17.14409 | 7865 ft | 148 kts | 267° |
| 2026-04-27 11:08 | 28.40610 | -17.15568 | 7865 ft | 149 kts | 267° |
| 2026-04-27 11:08 | 28.40482 | -17.16731 | 7865 ft | 148 kts | 267° |
| 2026-04-27 11:09 | 28.40353 | -17.17895 | 7865 ft | 148 kts | 267° |
| 2026-04-27 11:09 | 28.40224 | -17.19068 | 7865 ft | 148 kts | 267° |
| 2026-04-27 11:09 | 28.40096 | -17.20230 | 7865 ft | 148 kts | 267° |
| 2026-04-27 11:09 | 28.39969 | -17.21390 | 7865 ft | 148 kts | 267° |
| 2026-04-27 11:10 | 28.39839 | -17.22532 | 7860 ft | 139 kts | 266° |
| 2026-04-27 11:10 | 28.39713 | -17.23587 | 7859 ft | 129 kts | 267° |
| 2026-04-27 11:10 | 28.39594 | -17.24563 | 7860 ft | 121 kts | 267° |
| 2026-04-27 11:10 | 28.39477 | -17.25492 | 7862 ft | 116 kts | 267° |
| 2026-04-27 11:11 | 28.39360 | -17.26387 | 7862 ft | 112 kts | 267° |
| 2026-04-27 11:11 | 28.39247 | -17.27242 | 7864 ft | 109 kts | 267° |
| 2026-04-27 11:11 | 28.39131 | -17.28097 | 7863 ft | 107 kts | 267° |
| 2026-04-27 11:11 | 28.39019 | -17.28927 | 7865 ft | 105 kts | 267° |
| 2026-04-27 11:12 | 28.38906 | -17.29747 | 7866 ft | 104 kts | 267° |
| 2026-04-27 11:12 | 28.38795 | -17.30555 | 7864 ft | 103 kts | 267° |
| 2026-04-27 11:12 | 28.38685 | -17.31353 | 7865 ft | 102 kts | 267° |
| 2026-04-27 11:12 | 28.38575 | -17.32149 | 7865 ft | 101 kts | 267° |
| 2026-04-27 11:13 | 28.38465 | -17.32927 | 7863 ft | 100 kts | 267° |
| 2026-04-27 11:13 | 28.38357 | -17.33710 | 7866 ft | 100 kts | 267° |
| 2026-04-27 11:13 | 28.38250 | -17.34485 | 7865 ft | 99 kts | 267° |
| 2026-04-27 11:13 | 28.38141 | -17.35265 | 7865 ft | 99 kts | 267° |
| 2026-04-27 11:14 | 28.38034 | -17.36035 | 7864 ft | 98 kts | 267° |
| 2026-04-27 11:14 | 28.37927 | -17.36805 | 7865 ft | 98 kts | 267° |
| 2026-04-27 11:14 | 28.37820 | -17.37573 | 7866 ft | 98 kts | 267° |
| 2026-04-27 11:14 | 28.37715 | -17.38331 | 7867 ft | 97 kts | 267° |
| 2026-04-27 11:15 | 28.37609 | -17.39094 | 7866 ft | 98 kts | 267° |
| 2026-04-27 11:15 | 28.37503 | -17.39858 | 7866 ft | 98 kts | 268° |
| 2026-04-27 11:15 | 28.37392 | -17.40683 | 7879 ft | 113 kts | 268° |
| 2026-04-27 11:15 | 28.37279 | -17.41612 | 7875 ft | 126 kts | 268° |
| 2026-04-27 11:16 | 28.37162 | -17.42656 | 7807 ft | 140 kts | 268° |
| 2026-04-27 11:16 | 28.37051 | -17.43804 | 7658 ft | 152 kts | 271° |
| 2026-04-27 11:16 | 28.36995 | -17.45040 | 7489 ft | 159 kts | 271° |
| 2026-04-27 11:16 | 28.36974 | -17.46316 | 7318 ft | 161 kts | 279° |
| 2026-04-27 11:17 | 28.37083 | -17.47594 | 7147 ft | 163 kts | 281° |
| 2026-04-27 11:17 | 28.37326 | -17.48829 | 6978 ft | 162 kts | 290° |
| 2026-04-27 11:17 | 28.37626 | -17.50064 | 6806 ft | 162 kts | 291° |
| 2026-04-27 11:17 | 28.37935 | -17.51309 | 6632 ft | 163 kts | 291° |
| 2026-04-27 11:18 | 28.38240 | -17.52541 | 6461 ft | 163 kts | 291° |
| 2026-04-27 11:18 | 28.38546 | -17.53780 | 6288 ft | 163 kts | 291° |
| 2026-04-27 11:18 | 28.38870 | -17.55021 | 6115 ft | 161 kts | 296° |
| 2026-04-27 11:18 | 28.39301 | -17.56180 | 5944 ft | 161 kts | 299° |
| 2026-04-27 11:19 | 28.39743 | -17.57342 | 5769 ft | 154 kts | 298° |
| 2026-04-27 11:19 | 28.40143 | -17.58421 | 5542 ft | 146 kts | 299° |
| 2026-04-27 11:19 | 28.40532 | -17.59487 | 5291 ft | 145 kts | 299° |
| 2026-04-27 11:19 | 28.40911 | -17.60539 | 5044 ft | 144 kts | 299° |
| 2026-04-27 11:20 | 28.41296 | -17.61580 | 4802 ft | 145 kts | 301° |
| 2026-04-27 11:20 | 28.41697 | -17.62642 | 4557 ft | 145 kts | 300° |
| 2026-04-27 11:20 | 28.42093 | -17.63688 | 4309 ft | 144 kts | 301° |
| 2026-04-27 11:20 | 28.42488 | -17.64736 | 4057 ft | 144 kts | 300° |
| 2026-04-27 11:21 | 28.42874 | -17.65773 | 3806 ft | 144 kts | 300° |
| 2026-04-27 11:21 | 28.43264 | -17.66834 | 3551 ft | 143 kts | 300° |
| 2026-04-27 11:21 | 28.43646 | -17.67872 | 3304 ft | 143 kts | 300° |
| 2026-04-27 11:21 | 28.44027 | -17.68923 | 3050 ft | 143 kts | 300° |
| 2026-04-27 11:22 | 28.44402 | -17.69954 | 2804 ft | 142 kts | 300° |
| 2026-04-27 11:22 | 28.44769 | -17.70962 | 2674 ft | 134 kts | 300° |
| 2026-04-27 11:22 | 28.45119 | -17.71936 | 2546 ft | 131 kts | 300° |
| 2026-04-27 11:22 | 28.45460 | -17.72887 | 2418 ft | 128 kts | 300° |
| 2026-04-27 11:23 | 28.45985 | -17.73630 | 2301 ft | 118 kts | 327° |
| 2026-04-27 11:23 | 28.46614 | -17.74203 | 2266 ft | 111 kts | 329° |
| 2026-04-27 11:23 | 28.47206 | -17.74719 | 2262 ft | 104 kts | 332° |
| 2026-04-27 11:23 | 28.47818 | -17.75110 | 2262 ft | 97 kts | 342° |
| 2026-04-27 11:24 | 28.48445 | -17.75399 | 2262 ft | 96 kts | 350° |
| 2026-04-27 11:24 | 28.49091 | -17.75515 | 2265 ft | 95 kts | 358° |
| 2026-04-27 11:24 | 28.49754 | -17.75590 | 2265 ft | 96 kts | 359° |
| 2026-04-27 11:24 | 28.50419 | -17.75650 | 2265 ft | 96 kts | 0° |
| 2026-04-27 11:25 | 28.51091 | -17.75686 | 2264 ft | 96 kts | 2° |
| 2026-04-27 11:25 | 28.51755 | -17.75633 | 2231 ft | 90 kts | 10° |
| 2026-04-27 11:25 | 28.52334 | -17.75530 | 2189 ft | 82 kts | 11° |
| 2026-04-27 11:25 | 28.52884 | -17.75458 | 2156 ft | 79 kts | 6° |
| 2026-04-27 11:26 | 28.53444 | -17.75426 | 2081 ft | 83 kts | 5° |
| 2026-04-27 11:26 | 28.54012 | -17.75423 | 1965 ft | 82 kts | 3° |
| 2026-04-27 11:26 | 28.54580 | -17.75412 | 1833 ft | 82 kts | 4° |
| 2026-04-27 11:26 | 28.55155 | -17.75408 | 1670 ft | 85 kts | 3° |
| 2026-04-27 11:27 | 28.55761 | -17.75417 | 1470 ft | 89 kts | 358° |
| 2026-04-27 11:27 | 28.56386 | -17.75422 | 1303 ft | 88 kts | 1° |
| 2026-04-27 11:27 | 28.56994 | -17.75412 | 1153 ft | 89 kts | 359° |
| 2026-04-27 11:27 | 28.57594 | -17.75435 | 1053 ft | 85 kts | 358° |
| 2026-04-27 11:28 | 28.58176 | -17.75456 | 954 ft | 82 kts | 359° |
| 2026-04-27 11:28 | 28.58698 | -17.75452 | 947 ft | 73 kts | 0° |
| 2026-04-27 11:28 | 28.59202 | -17.75464 | 875 ft | 70 kts | 357° |
| 2026-04-27 11:28 | 28.59728 | -17.75490 | 662 ft | 79 kts | 358° |
| 2026-04-27 11:29 | 28.60243 | -17.75499 | 493 ft | 69 kts | 358° |
| 2026-04-27 11:29 | 28.60767 | -17.75511 | 322 ft | 76 kts | 0° |
| 2026-04-27 11:29 | 28.61284 | -17.75535 | 233 ft | 74 kts | 358° |
| 2026-04-27 11:29 | 28.61778 | -17.75544 | 140 ft | 68 kts | 359° |
| 2026-04-27 11:30 | 28.62142 | -17.75533 | 124 ft | 26 kts | 28° |
| 2026-04-27 11:30 | 28.62240 | -17.75500 | 116 ft | 18 kts | 37° |
| 2026-04-27 11:30 | 28.62244 | -17.75353 | 95 ft | 15 kts | 90° |
| 2026-04-27 11:30 | 28.62244 | -17.75344 | 94 ft | 0 kts | 88° |